Palm Beach International Airport
KPBI : now visible

Airfield :











YOU CAN JOIN US ON...

 
LOGIN :

Register | Disclaimer

   EN    FR    IT 

 









Legend :    VFR   Marginal VFR   IFR   Intensive IFR   Very Intensive IFR
Visi :
Ceiling :
>= 8 km
>= 3000ft
5 to 8 km
1000 to 3000 ft
1500m to 5 km
500 to 1000 ft
800 to 1500m
200 to 500 ft
< 800m
< 200 ft
Symbols :   Thunderstorms  Fog  Heavy snow  Heavy precipitations  Wind > 20 kt






- Airport Elevation : 19 ft
- IATA code : PBI


KPBI - Palm Beach International

CURRENT METAR :
  • 271453Z VRB06KT 10SM SCT250 33/22 A3002 RMK AO2 SLP165 T03330222 53012 $

EXPIRED METARs :
  • 271353Z 22005KT 10SM SCT250 32/23 A3001 RMK AO2 SLP161 T03170228 $
  • 271253Z 27003KT 10SM SCT250 30/24 A2999 RMK AO2 SLP155 T03000239 $
  • 271153Z 27003KT 10SM SCT250 28/23 A2998 RMK AO2 SLP153 T02780233 10283 20256 53014 $
  • 271053Z 23003KT 10SM FEW250 26/23 A2997 RMK AO2 SLP147 T02560228 $

TAF KPBI
Valid from the 27 at 15:00 until the 28 at 12:00 UTC


271512Z 2715/2812 13008KT P6SM FEW030 SCT050
FM272000 16012KT P6SM VCSH SCT030 SCT050
FM280200 21007KT P6SM SCT050 BKN250
KZMA FIR / North America



MET'MAP, your aeronautical weather chart ! - Copyright ORBIFLY December 2007 - Disclaimer

ORBIFLY MET'MAP TEAM :

Programming & Development : Alexandra Zaïnal
Original concept : Baudouin d'Aumeries
Technical & hardware support : Manuel Goepfert
Assistance : Marc-Olivier Méhu




SOURCES & CREDITS :

   NOAA       Earth
Advisory